Time;durP1;ratioP1;P1;durP2;ratioP2;P2;SDS_P1;SDS_P2;PMS_P1;PMS_P2;Temp;Humidity;BMP_temperature;BMP_pressure;BME280_temperature;BME280_humidity;BME280_pressure;Samples;Min_cycle;Max_cycle;Signal;HPM_P1;HPM_P2
2023/07/06 00:00:13;;;;;;;0.00;0.00;;;;;;;;;;1757106;28;20217;-61
2023/07/06 00:01:06;;;;;;;0.00;0.00;;;;;;;;;;1758551;28;20211;-65
2023/07/06 00:01:57;;;;;;;0.00;0.00;;;;;;;;;;1754390;28;20205;-63
2023/07/06 00:02:49;;;;;;;0.00;0.00;;;;;;;;;;1754904;28;20213;-64
2023/07/06 00:03:40;;;;;;;0.00;0.00;;;;;;;;;;1759678;27;20208;-64
2023/07/06 00:04:31;;;;;;;0.00;0.00;;;;;;;;;;1764349;27;20226;-64
2023/07/06 00:05:24;;;;;;;0.00;0.00;;;;;;;;;;1758850;28;20224;-61
2023/07/06 00:06:15;;;;;;;0.00;0.00;;;;;;;;;;1751766;28;20269;-63
2023/07/06 00:07:06;;;;;;;0.00;0.00;;;;;;;;;;1752908;28;20197;-65
2023/07/06 00:07:58;;;;;;;0.00;0.00;;;;;;;;;;1761328;27;20961;-64
2023/07/06 00:08:52;;;;;;;0.00;0.00;;;;;;;;;;1762925;27;20212;-63
2023/07/06 00:09:45;;;;;;;0.00;0.00;;;;;;;;;;1763022;27;20196;-64
2023/07/06 00:10:39;;;;;;;0.00;0.00;;;;;;;;;;1757189;28;20204;-64
2023/07/06 00:11:35;;;;;;;0.00;0.00;;;;;;;;;;1752919;28;20626;-64
2023/07/06 00:12:29;;;;;;;0.00;0.00;;;;;;;;;;1758640;28;20258;-60
2023/07/06 00:13:22;;;;;;;0.00;0.00;;;;;;;;;;1757344;28;20224;-64
2023/07/06 00:14:14;;;;;;;0.00;0.00;;;;;;;;;;1758954;28;20826;-64
2023/07/06 00:15:09;;;;;;;0.00;0.00;;;;;;;;;;1753161;28;20202;-60
2023/07/06 00:16:00;;;;;;;0.00;0.00;;;;;;;;;;1747226;28;20228;-63
2023/07/06 00:17:06;;;;;;;0.00;0.00;;;;;;;;;;1751068;28;20216;-65
2023/07/06 00:17:58;;;;;;;0.00;0.00;;;;;;;;;;1751657;28;20216;-64
2023/07/06 00:18:49;;;;;;;0.00;0.00;;;;;;;;;;1751854;28;20623;-65
2023/07/06 00:19:42;;;;;;;0.00;0.00;;;;;;;;;;1751768;28;20636;-64
2023/07/06 00:20:37;;;;;;;0.00;0.00;;;;;;;;;;1751679;28;20274;-65
2023/07/06 00:21:30;;;;;;;0.00;0.00;;;;;;;;;;1751423;28;20206;-64
2023/07/06 00:22:21;;;;;;;0.00;0.00;;;;;;;;;;1752073;28;20474;-66
2023/07/06 00:23:13;;;;;;;0.00;0.00;;;;;;;;;;1751533;28;20205;-64
2023/07/06 00:24:07;;;;;;;0.00;0.00;;;;;;;;;;1751667;28;20205;-63
2023/07/06 00:24:59;;;;;;;0.00;0.00;;;;;;;;;;1751908;28;20564;-63
2023/07/06 00:25:50;;;;;;;0.00;0.00;;;;;;;;;;1754319;28;20225;-64
2023/07/06 00:26:42;;;;;;;0.00;0.00;;;;;;;;;;1756871;28;20663;-64
2023/07/06 00:27:33;;;;;;;0.00;0.00;;;;;;;;;;1751089;28;20293;-64
2023/07/06 00:28:26;;;;;;;0.00;0.00;;;;;;;;;;1752114;28;20205;-64
2023/07/06 00:29:18;;;;;;;0.00;0.00;;;;;;;;;;1752039;28;20206;-65
2023/07/06 00:30:15;;;;;;;0.00;0.00;;;;;;;;;;1751491;28;20262;-64
2023/07/06 00:31:10;;;;;;;0.00;0.00;;;;;;;;;;1751463;28;20740;-64
2023/07/06 00:32:15;;;;;;;0.00;0.00;;;;;;;;;;1751589;28;20213;-66
2023/07/06 00:33:07;;;;;;;0.00;0.00;;;;;;;;;;1749534;28;20214;-65
2023/07/06 00:34:03;;;;;;;0.00;0.00;;;;;;;;;;1751279;28;20201;-64
2023/07/06 00:34:54;;;;;;;0.00;0.00;;;;;;;;;;1751735;28;20202;-65
2023/07/06 00:35:48;;;;;;;0.00;0.00;;;;;;;;;;1753065;28;20221;-64
2023/07/06 00:36:40;;;;;;;0.00;0.00;;;;;;;;;;1757099;28;20581;-64
2023/07/06 00:37:32;;;;;;;0.00;0.00;;;;;;;;;;1751485;28;20608;-64
2023/07/06 00:38:24;;;;;;;0.00;0.00;;;;;;;;;;1752032;28;20202;-64
2023/07/06 00:39:15;;;;;;;0.00;0.00;;;;;;;;;;1751523;28;20205;-65
2023/07/06 00:40:09;;;;;;;0.00;0.00;;;;;;;;;;1745962;28;20775;-64
2023/07/06 00:41:00;;;;;;;0.00;0.00;;;;;;;;;;1748322;28;20205;-65
2023/07/06 00:41:52;;;;;;;0.00;0.00;;;;;;;;;;1751084;28;20202;-65
2023/07/06 00:42:44;;;;;;;0.00;0.00;;;;;;;;;;1751507;28;20731;-65
2023/07/06 00:43:50;;;;;;;0.00;0.00;;;;;;;;;;1751959;28;20224;-64
2023/07/06 00:44:49;;;;;;;0.00;0.00;;;;;;;;;;1748320;28;20561;-65
2023/07/06 00:45:41;;;;;;;0.00;0.00;;;;;;;;;;1746398;28;20614;-64
2023/07/06 00:46:39;;;;;;;0.00;0.00;;;;;;;;;;1745639;28;20673;-64
2023/07/06 00:47:33;;;;;;;0.00;0.00;;;;;;;;;;1747722;28;20635;-63
2023/07/06 00:48:26;;;;;;;0.00;0.00;;;;;;;;;;1751837;28;20205;-64
2023/07/06 00:49:19;;;;;;;0.00;0.00;;;;;;;;;;1751821;28;20201;-63
2023/07/06 00:50:11;;;;;;;0.00;0.00;;;;;;;;;;1751371;28;20205;-64
2023/07/06 00:51:06;;;;;;;0.00;0.00;;;;;;;;;;1751408;28;20197;-65
2023/07/06 00:52:00;;;;;;;0.00;0.00;;;;;;;;;;1751879;28;20209;-63
2023/07/06 00:52:54;;;;;;;0.00;0.00;;;;;;;;;;1754064;28;20508;-65
2023/07/06 00:53:47;;;;;;;0.00;0.00;;;;;;;;;;1751792;28;20202;-64
2023/07/06 00:54:40;;;;;;;0.00;0.00;;;;;;;;;;1751385;28;21180;-63
2023/07/06 00:55:33;;;;;;;0.00;0.00;;;;;;;;;;1751278;28;20304;-64
2023/07/06 00:56:27;;;;;;;0.00;0.00;;;;;;;;;;1751930;28;20209;-65
2023/07/06 00:57:19;;;;;;;0.00;0.00;;;;;;;;;;1753899;28;20205;-64
2023/07/06 00:58:13;;;;;;;0.00;0.00;;;;;;;;;;1752673;28;20280;-64
2023/07/06 00:59:04;;;;;;;0.00;0.00;;;;;;;;;;1750316;28;20213;-65
2023/07/06 00:59:57;;;;;;;0.00;0.00;;;;;;;;;;1751908;28;20262;-64
2023/07/06 01:00:49;;;;;;;0.00;0.00;;;;;;;;;;1751374;28;20233;-65
2023/07/06 01:01:43;;;;;;;0.00;0.00;;;;;;;;;;1751865;28;20209;-64
2023/07/06 01:02:38;;;;;;;0.00;0.00;;;;;;;;;;1746648;28;20216;-65
2023/07/06 01:03:30;;;;;;;0.00;0.00;;;;;;;;;;1752142;28;20808;-63
2023/07/06 01:04:21;;;;;;;0.00;0.00;;;;;;;;;;1752360;28;20664;-67
2023/07/06 01:05:14;;;;;;;0.00;0.00;;;;;;;;;;1751647;28;20235;-62
2023/07/06 01:06:07;;;;;;;0.00;0.00;;;;;;;;;;1751580;28;20216;-65
2023/07/06 01:06:59;;;;;;;0.00;0.00;;;;;;;;;;1751761;28;20201;-63
2023/07/06 01:07:51;;;;;;;0.00;0.00;;;;;;;;;;1751946;28;20258;-64
2023/07/06 01:08:43;;;;;;;0.00;0.00;;;;;;;;;;1756972;28;20203;-66
2023/07/06 01:09:34;;;;;;;0.00;0.00;;;;;;;;;;1751056;28;20209;-65
2023/07/06 01:10:26;;;;;;;0.00;0.00;;;;;;;;;;1752238;28;20656;-63
2023/07/06 01:11:17;;;;;;;0.00;0.00;;;;;;;;;;1751212;28;20569;-65
2023/07/06 01:12:09;;;;;;;0.00;0.00;;;;;;;;;;1751382;28;20279;-65
2023/07/06 01:13:01;;;;;;;0.00;0.00;;;;;;;;;;1751201;28;20201;-64
2023/07/06 01:13:53;;;;;;;0.00;0.00;;;;;;;;;;1751482;28;20728;-65
2023/07/06 01:14:46;;;;;;;0.00;0.00;;;;;;;;;;1751404;28;20325;-64
2023/07/06 01:15:41;;;;;;;0.00;0.00;;;;;;;;;;1754565;28;20224;-64
2023/07/06 01:16:36;;;;;;;0.00;0.00;;;;;;;;;;1758707;28;20185;-65
2023/07/06 01:17:33;;;;;;;0.00;0.00;;;;;;;;;;1758498;28;20742;-64
2023/07/06 01:18:28;;;;;;;0.00;0.00;;;;;;;;;;1757063;28;20228;-64
2023/07/06 01:19:43;;;;;;;0.00;0.00;;;;;;;;;;1762740;28;20219;-65
2023/07/06 01:20:39;;;;;;;0.00;0.00;;;;;;;;;;1759153;28;20571;-65
2023/07/06 01:21:39;;;;;;;0.00;0.00;;;;;;;;;;1765080;28;20623;-65
2023/07/06 01:22:48;;;;;;;0.00;0.00;;;;;;;;;;1761556;28;20195;-62
2023/07/06 01:23:51;;;;;;;0.00;0.00;;;;;;;;;;1752834;28;20261;-65
2023/07/06 01:24:51;;;;;;;0.00;0.00;;;;;;;;;;1758648;28;20197;-64
2023/07/06 01:25:55;;;;;;;0.00;0.00;;;;;;;;;;1759468;28;20221;-63
2023/07/06 01:27:00;;;;;;;0.00;0.00;;;;;;;;;;1763289;28;20192;-64
2023/07/06 01:28:04;;;;;;;0.00;0.00;;;;;;;;;;1758597;28;20253;-65
2023/07/06 01:29:09;;;;;;;0.00;0.00;;;;;;;;;;1762902;28;20201;-65
2023/07/06 01:30:18;;;;;;;0.00;0.00;;;;;;;;;;1761106;28;20693;-64
2023/07/06 01:31:22;;;;;;;0.00;0.00;;;;;;;;;;1763501;28;20196;-64
2023/07/06 01:32:14;;;;;;;0.00;0.00;;;;;;;;;;1759988;28;20293;-66
2023/07/06 01:33:09;;;;;;;0.00;0.00;;;;;;;;;;1763133;28;20851;-64
2023/07/06 01:34:02;;;;;;;0.00;0.00;;;;;;;;;;1762781;28;20274;-65
2023/07/06 01:34:57;;;;;;;0.00;0.00;;;;;;;;;;1762255;28;20688;-64
2023/07/06 01:35:54;;;;;;;0.00;0.00;;;;;;;;;;1761088;28;20227;-64
2023/07/06 01:36:48;;;;;;;0.00;0.00;;;;;;;;;;1755604;28;20224;-63
2023/07/06 01:37:41;;;;;;;0.00;0.00;;;;;;;;;;1761413;28;20208;-65
2023/07/06 01:38:34;;;;;;;0.00;0.00;;;;;;;;;;1764320;28;20687;-64
2023/07/06 01:39:26;;;;;;;0.00;0.00;;;;;;;;;;1755054;28;20205;-64
2023/07/06 01:40:18;;;;;;;0.00;0.00;;;;;;;;;;1757768;28;20296;-62
2023/07/06 01:41:10;;;;;;;0.00;0.00;;;;;;;;;;1757890;28;20707;-64
2023/07/06 01:42:29;;;;;;;0.00;0.00;;;;;;;;;;1758547;28;20632;-64
2023/07/06 01:43:20;;;;;;;0.00;0.00;;;;;;;;;;1739302;28;20692;-64
2023/07/06 01:44:14;;;;;;;0.00;0.00;;;;;;;;;;1748408;28;20609;-65
2023/07/06 01:45:07;;;;;;;0.00;0.00;;;;;;;;;;1760314;28;20245;-59
2023/07/06 01:45:59;;;;;;;0.00;0.00;;;;;;;;;;1758331;28;20207;-64
2023/07/06 01:46:53;;;;;;;0.00;0.00;;;;;;;;;;1758409;28;20209;-64
2023/07/06 01:47:46;;;;;;;0.00;0.00;;;;;;;;;;1758330;28;20235;-64
2023/07/06 01:48:37;;;;;;;0.00;0.00;;;;;;;;;;1758336;28;20675;-63
2023/07/06 01:49:28;;;;;;;0.00;0.00;;;;;;;;;;1758537;28;20316;-64
2023/07/06 01:50:22;;;;;;;0.00;0.00;;;;;;;;;;1758706;28;20201;-64
2023/07/06 01:51:18;;;;;;;0.00;0.00;;;;;;;;;;1757732;28;20213;-64
2023/07/06 01:52:13;;;;;;;0.00;0.00;;;;;;;;;;1756317;28;20205;-65
2023/07/06 01:53:08;;;;;;;0.00;0.00;;;;;;;;;;1761784;27;20420;-64
2023/07/06 01:54:01;;;;;;;0.00;0.00;;;;;;;;;;1764244;27;20243;-65
2023/07/06 01:54:58;;;;;;;0.00;0.00;;;;;;;;;;1763410;27;20292;-63
2023/07/06 01:55:53;;;;;;;0.00;0.00;;;;;;;;;;1759297;28;20720;-64
2023/07/06 01:56:48;;;;;;;0.00;0.00;;;;;;;;;;1759825;28;20236;-66
2023/07/06 01:57:40;;;;;;;0.00;0.00;;;;;;;;;;1760329;27;20228;-65
2023/07/06 01:58:35;;;;;;;0.00;0.00;;;;;;;;;;1759715;28;20660;-64
2023/07/06 01:59:28;;;;;;;0.00;0.00;;;;;;;;;;1758367;28;20222;-65
2023/07/06 02:00:20;;;;;;;0.00;0.00;;;;;;;;;;1759943;28;20246;-64
2023/07/06 02:01:14;;;;;;;0.00;0.00;;;;;;;;;;1759765;27;20297;-63
2023/07/06 02:02:07;;;;;;;0.00;0.00;;;;;;;;;;1759872;28;20209;-65
2023/07/06 02:03:00;;;;;;;0.00;0.00;;;;;;;;;;1761037;27;20576;-65
2023/07/06 02:03:53;;;;;;;0.00;0.00;;;;;;;;;;1763745;27;20209;-64
2023/07/06 02:04:44;;;;;;;0.00;0.00;;;;;;;;;;1759618;28;20201;-65
2023/07/06 02:05:38;;;;;;;0.00;0.00;;;;;;;;;;1759015;28;20633;-64
2023/07/06 02:06:30;;;;;;;0.00;0.00;;;;;;;;;;1760142;28;20371;-65
2023/07/06 02:07:21;;;;;;;0.00;0.00;;;;;;;;;;1761280;27;20584;-64
2023/07/06 02:08:13;;;;;;;0.00;0.00;;;;;;;;;;1761002;27;20201;-64
2023/07/06 02:09:05;;;;;;;0.00;0.00;;;;;;;;;;1758382;27;20234;-65
2023/07/06 02:09:56;;;;;;;0.00;0.00;;;;;;;;;;1759953;27;20197;-64
2023/07/06 02:10:48;;;;;;;0.00;0.00;;;;;;;;;;1759273;28;20208;-67
2023/07/06 02:11:39;;;;;;;0.00;0.00;;;;;;;;;;1761914;27;20610;-64
2023/07/06 02:12:31;;;;;;;0.00;0.00;;;;;;;;;;1759802;28;20683;-64
2023/07/06 02:13:23;;;;;;;0.00;0.00;;;;;;;;;;1757887;28;20193;-63
2023/07/06 02:14:14;;;;;;;0.00;0.00;;;;;;;;;;1759182;28;20944;-63
2023/07/06 02:15:06;;;;;;;0.00;0.00;;;;;;;;;;1759444;28;20621;-65
2023/07/06 02:15:58;;;;;;;0.00;0.00;;;;;;;;;;1754709;28;20233;-65
2023/07/06 02:16:50;;;;;;;0.00;0.00;;;;;;;;;;1752656;28;20225;-64
2023/07/06 02:17:44;;;;;;;0.00;0.00;;;;;;;;;;1752153;28;20524;-64
2023/07/06 02:18:35;;;;;;;0.00;0.00;;;;;;;;;;1752556;28;20275;-66
2023/07/06 02:19:27;;;;;;;0.00;0.00;;;;;;;;;;1752738;28;20197;-64
2023/07/06 02:20:19;;;;;;;0.00;0.00;;;;;;;;;;1759092;28;20268;-64
2023/07/06 02:21:11;;;;;;;0.00;0.00;;;;;;;;;;1753091;28;20686;-63
2023/07/06 02:22:03;;;;;;;0.00;0.00;;;;;;;;;;1752485;28;20201;-64
2023/07/06 02:22:54;;;;;;;0.00;0.00;;;;;;;;;;1752310;28;20568;-64
2023/07/06 02:23:46;;;;;;;0.00;0.00;;;;;;;;;;1752623;28;20228;-64
2023/07/06 02:24:38;;;;;;;0.00;0.00;;;;;;;;;;1752119;28;20206;-64
2023/07/06 02:25:29;;;;;;;0.00;0.00;;;;;;;;;;1750581;28;20241;-65
2023/07/06 02:26:21;;;;;;;0.00;0.00;;;;;;;;;;1752265;28;20225;-65
2023/07/06 02:27:12;;;;;;;0.00;0.00;;;;;;;;;;1752508;28;20725;-64
2023/07/06 02:28:04;;;;;;;0.00;0.00;;;;;;;;;;1752305;28;20614;-64
2023/07/06 02:28:56;;;;;;;0.00;0.00;;;;;;;;;;1752391;28;20278;-66
2023/07/06 02:29:47;;;;;;;0.00;0.00;;;;;;;;;;1752547;28;20291;-64
2023/07/06 02:30:39;;;;;;;0.00;0.00;;;;;;;;;;1752225;28;20197;-66
2023/07/06 02:31:30;;;;;;;0.00;0.00;;;;;;;;;;1752861;28;20266;-66
2023/07/06 02:32:21;;;;;;;0.00;0.00;;;;;;;;;;1752225;28;20213;-64
2023/07/06 02:33:14;;;;;;;0.00;0.00;;;;;;;;;;1752504;28;20483;-66
2023/07/06 02:34:05;;;;;;;0.00;0.00;;;;;;;;;;1752300;28;20737;-65
2023/07/06 02:34:57;;;;;;;0.00;0.00;;;;;;;;;;1752450;28;20792;-64
2023/07/06 02:35:48;;;;;;;0.00;0.00;;;;;;;;;;1751917;28;20233;-66
2023/07/06 02:36:39;;;;;;;0.00;0.00;;;;;;;;;;1752349;28;20237;-64
2023/07/06 02:37:32;;;;;;;0.00;0.00;;;;;;;;;;1752698;28;20194;-65
2023/07/06 02:38:23;;;;;;;0.00;0.00;;;;;;;;;;1751037;28;20206;-66
2023/07/06 02:39:15;;;;;;;0.00;0.00;;;;;;;;;;1750125;28;20201;-65
2023/07/06 02:40:08;;;;;;;0.00;0.00;;;;;;;;;;1752453;28;20701;-62
2023/07/06 02:41:04;;;;;;;0.00;0.00;;;;;;;;;;1751710;28;20205;-64
2023/07/06 02:41:56;;;;;;;0.00;0.00;;;;;;;;;;1749198;28;20209;-64
2023/07/06 02:42:48;;;;;;;0.00;0.00;;;;;;;;;;1752007;28;20231;-66
2023/07/06 02:43:41;;;;;;;0.00;0.00;;;;;;;;;;1752782;28;20278;-64
2023/07/06 02:44:32;;;;;;;0.00;0.00;;;;;;;;;;1752587;28;20205;-64
2023/07/06 02:45:23;;;;;;;0.00;0.00;;;;;;;;;;1752676;28;20316;-61
2023/07/06 02:46:19;;;;;;;0.00;0.00;;;;;;;;;;1752408;28;20197;-63
2023/07/06 02:47:10;;;;;;;0.00;0.00;;;;;;;;;;1752381;28;20228;-63
2023/07/06 02:48:03;;;;;;;0.00;0.00;;;;;;;;;;1752731;28;20201;-63
2023/07/06 02:48:56;;;;;;;0.00;0.00;;;;;;;;;;1752389;28;20592;-64
2023/07/06 02:49:48;;;;;;;0.00;0.00;;;;;;;;;;1752777;28;20251;-66
2023/07/06 02:50:39;;;;;;;0.00;0.00;;;;;;;;;;1752762;28;20254;-66
2023/07/06 02:51:34;;;;;;;0.00;0.00;;;;;;;;;;1752893;28;20677;-64
2023/07/06 02:52:25;;;;;;;0.00;0.00;;;;;;;;;;1748635;28;20199;-63
2023/07/06 02:53:16;;;;;;;0.00;0.00;;;;;;;;;;1752552;28;20206;-64
2023/07/06 02:54:10;;;;;;;0.00;0.00;;;;;;;;;;1752450;28;20205;-65
2023/07/06 02:55:01;;;;;;;0.00;0.00;;;;;;;;;;1752550;28;20209;-60
2023/07/06 02:55:52;;;;;;;0.00;0.00;;;;;;;;;;1752053;28;20300;-64
2023/07/06 02:56:44;;;;;;;0.00;0.00;;;;;;;;;;1752618;28;20209;-63
2023/07/06 02:57:36;;;;;;;0.00;0.00;;;;;;;;;;1751799;28;20206;-61
2023/07/06 02:58:27;;;;;;;0.00;0.00;;;;;;;;;;1749413;28;20200;-65
2023/07/06 02:59:19;;;;;;;0.00;0.00;;;;;;;;;;1750802;28;20202;-66
2023/07/06 03:00:14;;;;;;;0.00;0.00;;;;;;;;;;1752195;28;20656;-61
2023/07/06 03:01:06;;;;;;;0.00;0.00;;;;;;;;;;1752131;28;20328;-65
2023/07/06 03:01:57;;;;;;;0.00;0.00;;;;;;;;;;1752156;28;20206;-66
2023/07/06 03:02:48;;;;;;;0.00;0.00;;;;;;;;;;1755673;28;20224;-63
2023/07/06 03:03:40;;;;;;;0.00;0.00;;;;;;;;;;1752099;28;20209;-65
2023/07/06 03:04:33;;;;;;;0.00;0.00;;;;;;;;;;1751602;28;20254;-63
2023/07/06 03:05:25;;;;;;;0.00;0.00;;;;;;;;;;1752546;28;20290;-66
2023/07/06 03:06:17;;;;;;;0.00;0.00;;;;;;;;;;1751774;28;20221;-64
2023/07/06 03:07:09;;;;;;;0.00;0.00;;;;;;;;;;1752170;28;20288;-64
2023/07/06 03:08:00;;;;;;;0.00;0.00;;;;;;;;;;1752079;28;20554;-64
2023/07/06 03:08:52;;;;;;;0.00;0.00;;;;;;;;;;1751968;28;20212;-63
2023/07/06 03:09:44;;;;;;;0.00;0.00;;;;;;;;;;1752185;28;20517;-65
2023/07/06 03:10:35;;;;;;;0.00;0.00;;;;;;;;;;1752039;28;20202;-62
2023/07/06 03:11:26;;;;;;;0.00;0.00;;;;;;;;;;1752618;28;20289;-66
2023/07/06 03:12:19;;;;;;;0.00;0.00;;;;;;;;;;1751091;28;20213;-66
2023/07/06 03:13:10;;;;;;;0.00;0.00;;;;;;;;;;1752185;28;20209;-64
2023/07/06 03:14:03;;;;;;;0.00;0.00;;;;;;;;;;1749857;28;20286;-66
2023/07/06 03:14:54;;;;;;;0.10;0.10;;;;;;;;;;1752239;28;20702;-63
2023/07/06 03:15:51;;;;;;;0.00;0.00;;;;;;;;;;1752368;28;20728;-63
2023/07/06 03:16:42;;;;;;;0.00;0.00;;;;;;;;;;1757955;28;20253;-64
2023/07/06 03:17:34;;;;;;;0.00;0.00;;;;;;;;;;1755975;28;20643;-63
2023/07/06 03:18:26;;;;;;;0.00;0.00;;;;;;;;;;1757800;28;20200;-63
2023/07/06 03:19:18;;;;;;;0.00;0.00;;;;;;;;;;1757373;28;20205;-63
2023/07/06 03:20:13;;;;;;;0.00;0.00;;;;;;;;;;1748825;28;20206;-62
2023/07/06 03:21:05;;;;;;;0.00;0.00;;;;;;;;;;1750648;28;20740;-65
2023/07/06 03:21:58;;;;;;;0.00;0.00;;;;;;;;;;1752129;28;20662;-64
2023/07/06 03:22:51;;;;;;;0.00;0.00;;;;;;;;;;1751987;28;20201;-65
2023/07/06 03:23:42;;;;;;;0.00;0.00;;;;;;;;;;1758204;28;20741;-64
2023/07/06 03:24:34;;;;;;;0.00;0.00;;;;;;;;;;1758527;28;20622;-64
2023/07/06 03:25:26;;;;;;;0.00;0.00;;;;;;;;;;1745358;28;20226;-65
2023/07/06 03:26:18;;;;;;;0.00;0.00;;;;;;;;;;1757094;28;20201;-64
2023/07/06 03:27:10;;;;;;;0.00;0.00;;;;;;;;;;1758827;28;20205;-65
2023/07/06 03:28:02;;;;;;;0.00;0.00;;;;;;;;;;1754224;28;20549;-64
2023/07/06 03:28:55;;;;;;;0.00;0.00;;;;;;;;;;1757018;28;20261;-63
2023/07/06 03:29:47;;;;;;;0.00;0.00;;;;;;;;;;1757430;28;20685;-65
2023/07/06 03:30:38;;;;;;;0.00;0.00;;;;;;;;;;1751831;28;20197;-66
2023/07/06 03:31:32;;;;;;;0.00;0.00;;;;;;;;;;1759438;28;20254;-66
2023/07/06 03:32:25;;;;;;;0.00;0.00;;;;;;;;;;1756741;28;20699;-63
2023/07/06 03:33:17;;;;;;;0.00;0.00;;;;;;;;;;1756106;28;20217;-64
2023/07/06 03:34:08;;;;;;;0.00;0.00;;;;;;;;;;1757315;28;20837;-63
2023/07/06 03:35:00;;;;;;;0.00;0.00;;;;;;;;;;1755592;28;20201;-65
2023/07/06 03:35:53;;;;;;;0.00;0.00;;;;;;;;;;1753273;28;20209;-65
2023/07/06 03:36:45;;;;;;;0.00;0.00;;;;;;;;;;1757859;28;20205;-63
2023/07/06 03:37:37;;;;;;;0.00;0.00;;;;;;;;;;1755561;28;20289;-62
2023/07/06 03:38:29;;;;;;;0.00;0.00;;;;;;;;;;1753865;28;20231;-64
2023/07/06 03:39:21;;;;;;;0.00;0.00;;;;;;;;;;1756258;28;20287;-64
2023/07/06 03:40:13;;;;;;;0.00;0.00;;;;;;;;;;1754165;28;20204;-62
2023/07/06 03:41:05;;;;;;;0.00;0.00;;;;;;;;;;1755001;28;20204;-65
2023/07/06 03:41:57;;;;;;;0.00;0.00;;;;;;;;;;1754654;28;20229;-64
2023/07/06 03:42:48;;;;;;;0.00;0.00;;;;;;;;;;1751752;28;20229;-63
2023/07/06 03:43:41;;;;;;;0.00;0.00;;;;;;;;;;1753676;28;20276;-65
2023/07/06 03:44:32;;;;;;;0.00;0.00;;;;;;;;;;1752068;28;20209;-65
2023/07/06 03:45:23;;;;;;;0.00;0.00;;;;;;;;;;1749825;28;20246;-65
2023/07/06 03:46:15;;;;;;;0.00;0.00;;;;;;;;;;1749435;28;20688;-63
2023/07/06 03:47:06;;;;;;;0.00;0.00;;;;;;;;;;1751808;28;20262;-65
2023/07/06 03:48:00;;;;;;;0.00;0.00;;;;;;;;;;1750738;28;20208;-64
2023/07/06 03:48:51;;;;;;;0.00;0.00;;;;;;;;;;1751205;28;20586;-68
2023/07/06 03:49:43;;;;;;;0.00;0.00;;;;;;;;;;1751677;28;20356;-65
2023/07/06 03:50:34;;;;;;;0.00;0.00;;;;;;;;;;1753229;28;20289;-65
2023/07/06 03:51:26;;;;;;;0.00;0.00;;;;;;;;;;1758059;28;20615;-63
2023/07/06 03:52:18;;;;;;;0.00;0.00;;;;;;;;;;1757533;28;20660;-63
2023/07/06 03:53:09;;;;;;;0.00;0.00;;;;;;;;;;1751883;28;20214;-63
2023/07/06 03:54:06;;;;;;;0.00;0.00;;;;;;;;;;1753081;28;20558;-66
2023/07/06 03:54:59;;;;;;;0.00;0.00;;;;;;;;;;1751869;28;20678;-66
2023/07/06 03:55:53;;;;;;;0.00;0.00;;;;;;;;;;1753919;28;20275;-66
2023/07/06 03:56:45;;;;;;;0.00;0.00;;;;;;;;;;1758994;28;20201;-64
2023/07/06 03:57:36;;;;;;;0.00;0.00;;;;;;;;;;1755046;28;20278;-64
2023/07/06 03:58:28;;;;;;;0.00;0.00;;;;;;;;;;1749294;28;20736;-64
2023/07/06 03:59:21;;;;;;;0.00;0.00;;;;;;;;;;1750093;28;20557;-63
2023/07/06 04:00:19;;;;;;;0.00;0.00;;;;;;;;;;1750033;28;20225;-61
2023/07/06 04:01:10;;;;;;;0.00;0.00;;;;;;;;;;1748416;28;20689;-63
2023/07/06 04:02:02;;;;;;;0.00;0.00;;;;;;;;;;1751618;28;20252;-63
2023/07/06 04:02:54;;;;;;;0.00;0.00;;;;;;;;;;1752323;28;20258;-63
2023/07/06 04:03:45;;;;;;;0.00;0.00;;;;;;;;;;1757795;28;20200;-64
2023/07/06 04:04:37;;;;;;;0.00;0.00;;;;;;;;;;1758591;28;20679;-64
2023/07/06 04:05:31;;;;;;;0.00;0.00;;;;;;;;;;1745233;28;20304;-63
2023/07/06 04:06:24;;;;;;;0.00;0.00;;;;;;;;;;1757331;28;20660;-64
2023/07/06 04:07:18;;;;;;;0.00;0.00;;;;;;;;;;1754376;28;20206;-64
2023/07/06 04:08:11;;;;;;;0.00;0.00;;;;;;;;;;1757047;28;20561;-66
2023/07/06 04:09:03;;;;;;;0.00;0.00;;;;;;;;;;1756729;28;20288;-63
2023/07/06 04:09:55;;;;;;;0.00;0.00;;;;;;;;;;1751885;28;20698;-64
2023/07/06 04:10:46;;;;;;;0.00;0.00;;;;;;;;;;1749575;28;20262;-66
2023/07/06 04:11:38;;;;;;;0.00;0.00;;;;;;;;;;1752529;28;20215;-65
2023/07/06 04:12:32;;;;;;;0.00;0.00;;;;;;;;;;1751842;28;20433;-64
2023/07/06 04:13:24;;;;;;;0.00;0.00;;;;;;;;;;1750850;28;20239;-64
2023/07/06 04:14:19;;;;;;;0.00;0.00;;;;;;;;;;1752903;28;20205;-64
2023/07/06 04:15:11;;;;;;;0.00;0.00;;;;;;;;;;1751251;28;20197;-62
2023/07/06 04:16:02;;;;;;;0.00;0.00;;;;;;;;;;1747140;28;20201;-64
2023/07/06 04:16:55;;;;;;;0.00;0.00;;;;;;;;;;1751112;28;20519;-63
2023/07/06 04:17:47;;;;;;;0.00;0.00;;;;;;;;;;1751580;28;20209;-65
2023/07/06 04:18:39;;;;;;;0.00;0.00;;;;;;;;;;1744869;28;20230;-62
2023/07/06 04:19:31;;;;;;;0.00;0.00;;;;;;;;;;1757802;28;20200;-64
2023/07/06 04:20:23;;;;;;;0.00;0.00;;;;;;;;;;1752750;28;20205;-64
2023/07/06 04:21:14;;;;;;;0.00;0.00;;;;;;;;;;1751246;28;20590;-64
2023/07/06 04:22:07;;;;;;;0.00;0.00;;;;;;;;;;1751841;28;20762;-65
2023/07/06 04:22:59;;;;;;;0.00;0.00;;;;;;;;;;1756691;28;20322;-66
2023/07/06 04:23:50;;;;;;;0.00;0.00;;;;;;;;;;1757050;28;20676;-64
2023/07/06 04:24:42;;;;;;;0.00;0.00;;;;;;;;;;1758036;28;20353;-66
2023/07/06 04:25:34;;;;;;;0.00;0.00;;;;;;;;;;1749985;28;20279;-65
2023/07/06 04:26:26;;;;;;;0.00;0.00;;;;;;;;;;1750749;28;20238;-64
2023/07/06 04:27:17;;;;;;;0.00;0.00;;;;;;;;;;1752753;28;20209;-65
2023/07/06 04:28:10;;;;;;;0.00;0.00;;;;;;;;;;1754306;28;20248;-65
2023/07/06 04:29:04;;;;;;;0.00;0.00;;;;;;;;;;1749692;28;20288;-64
2023/07/06 04:29:55;;;;;;;0.00;0.00;;;;;;;;;;1751786;28;20292;-64
2023/07/06 04:30:50;;;;;;;0.00;0.00;;;;;;;;;;1749359;28;20202;-65
2023/07/06 04:31:41;;;;;;;0.00;0.00;;;;;;;;;;1749234;28;20274;-65
2023/07/06 04:32:33;;;;;;;0.00;0.00;;;;;;;;;;1752217;28;20255;-66
2023/07/06 04:33:25;;;;;;;0.00;0.00;;;;;;;;;;1756979;28;20197;-64
2023/07/06 04:34:16;;;;;;;0.00;0.00;;;;;;;;;;1757431;28;20204;-64
2023/07/06 04:35:10;;;;;;;0.00;0.00;;;;;;;;;;1754846;28;20203;-65
2023/07/06 04:36:03;;;;;;;0.00;0.00;;;;;;;;;;1755939;28;20204;-65
2023/07/06 04:36:54;;;;;;;0.00;0.00;;;;;;;;;;1756858;28;20205;-63
2023/07/06 04:37:45;;;;;;;0.00;0.00;;;;;;;;;;1755846;28;20228;-64
2023/07/06 04:38:39;;;;;;;0.00;0.00;;;;;;;;;;1759354;28;20479;-64
2023/07/06 04:39:30;;;;;;;0.00;0.00;;;;;;;;;;1750871;28;20284;-64
2023/07/06 04:40:21;;;;;;;0.00;0.00;;;;;;;;;;1750243;28;20207;-65
2023/07/06 04:41:13;;;;;;;0.00;0.00;;;;;;;;;;1749937;28;20201;-66
2023/07/06 04:42:05;;;;;;;0.00;0.00;;;;;;;;;;1751717;28;20707;-64
2023/07/06 04:42:56;;;;;;;0.00;0.00;;;;;;;;;;1751672;28;20213;-66
2023/07/06 04:43:48;;;;;;;0.00;0.00;;;;;;;;;;1749764;28;20216;-63
2023/07/06 04:44:40;;;;;;;0.00;0.00;;;;;;;;;;1748777;28;20202;-64
2023/07/06 04:45:32;;;;;;;0.00;0.00;;;;;;;;;;1749337;28;20827;-64
2023/07/06 04:46:23;;;;;;;0.00;0.00;;;;;;;;;;1748150;28;20309;-64
2023/07/06 04:47:14;;;;;;;0.00;0.00;;;;;;;;;;1752499;28;20202;-64
2023/07/06 04:48:06;;;;;;;0.00;0.00;;;;;;;;;;1754936;28;20292;-63
2023/07/06 04:48:57;;;;;;;0.00;0.00;;;;;;;;;;1752812;28;20199;-67
2023/07/06 04:49:48;;;;;;;0.00;0.00;;;;;;;;;;1757188;28;20205;-63
2023/07/06 04:50:42;;;;;;;0.00;0.00;;;;;;;;;;1753218;28;20667;-62
2023/07/06 04:51:35;;;;;;;0.00;0.00;;;;;;;;;;1755682;28;20200;-64
2023/07/06 04:52:28;;;;;;;0.00;0.00;;;;;;;;;;1754376;28;20209;-64
2023/07/06 04:53:19;;;;;;;0.00;0.00;;;;;;;;;;1757423;28;20205;-64
2023/07/06 04:54:12;;;;;;;0.00;0.00;;;;;;;;;;1757102;28;20568;-65
2023/07/06 04:55:05;;;;;;;0.00;0.00;;;;;;;;;;1755204;28;20266;-66
2023/07/06 04:56:00;;;;;;;0.00;0.00;;;;;;;;;;1748265;28;20198;-66
2023/07/06 04:56:52;;;;;;;0.00;0.00;;;;;;;;;;1750621;28;20572;-64
2023/07/06 04:57:43;;;;;;;0.00;0.00;;;;;;;;;;1753825;28;20212;-64
2023/07/06 04:58:35;;;;;;;0.00;0.00;;;;;;;;;;1751865;28;20305;-66
2023/07/06 04:59:26;;;;;;;0.00;0.00;;;;;;;;;;1747220;28;20201;-66
2023/07/06 05:00:22;;;;;;;0.00;0.00;;;;;;;;;;1749039;28;20569;-61
2023/07/06 05:01:14;;;;;;;0.00;0.00;;;;;;;;;;1749643;28;20213;-64
2023/07/06 05:02:06;;;;;;;0.00;0.00;;;;;;;;;;1751638;28;20641;-65
2023/07/06 05:02:58;;;;;;;0.00;0.00;;;;;;;;;;1752341;28;20216;-64
2023/07/06 05:03:52;;;;;;;0.00;0.00;;;;;;;;;;1757304;28;20544;-66
2023/07/06 05:04:43;;;;;;;0.00;0.00;;;;;;;;;;1751322;28;20240;-64
2023/07/06 05:05:38;;;;;;;0.00;0.00;;;;;;;;;;1752466;28;20213;-64
2023/07/06 05:06:31;;;;;;;0.00;0.00;;;;;;;;;;1751404;28;20205;-66
2023/07/06 05:07:23;;;;;;;0.00;0.00;;;;;;;;;;1751261;28;20209;-65
2023/07/06 05:08:16;;;;;;;0.00;0.00;;;;;;;;;;1755305;28;20208;-65
2023/07/06 05:09:08;;;;;;;0.00;0.00;;;;;;;;;;1756962;28;20197;-65
2023/07/06 05:10:00;;;;;;;0.00;0.00;;;;;;;;;;1755993;28;20205;-64
2023/07/06 05:10:53;;;;;;;0.00;0.00;;;;;;;;;;1748419;28;20205;-64
2023/07/06 05:11:45;;;;;;;0.00;0.00;;;;;;;;;;1750035;28;20251;-67
2023/07/06 05:12:36;;;;;;;0.00;0.00;;;;;;;;;;1755778;28;20197;-64
2023/07/06 05:13:28;;;;;;;0.00;0.00;;;;;;;;;;1751866;28;20206;-64
2023/07/06 05:14:21;;;;;;;0.00;0.00;;;;;;;;;;1749877;28;20243;-64
2023/07/06 05:15:14;;;;;;;0.00;0.00;;;;;;;;;;1748314;28;20519;-61
2023/07/06 05:16:06;;;;;;;0.00;0.00;;;;;;;;;;1769075;22;20220;-76
2023/07/06 05:16:57;;;;;;;0.00;0.00;;;;;;;;;;1768051;28;20586;-76
2023/07/06 05:17:49;;;;;;;0.00;0.00;;;;;;;;;;1767419;28;20281;-76